createdAt,value
2019-03-17T00:02:21.413Z,82.78
2019-03-17T00:04:55.383Z,82.38
2019-03-17T00:07:26.127Z,82.36
2019-03-17T00:09:56.911Z,82.47
2019-03-17T00:12:31.397Z,82.25
2019-03-17T00:15:05.460Z,81.84
2019-03-17T00:17:34.117Z,81.90
2019-03-17T00:20:06.584Z,81.95
2019-03-17T00:22:36.961Z,80.97
2019-03-17T00:25:09.729Z,81.25
2019-03-17T00:27:40.117Z,81.23
2019-03-17T00:30:12.727Z,80.18
2019-03-17T00:32:43.658Z,79.96
2019-03-17T00:35:14.472Z,79.65
2019-03-17T00:37:45.295Z,79.65
2019-03-17T00:40:16.129Z,79.87
2019-03-17T00:42:46.510Z,80.15
2019-03-17T00:45:17.273Z,80.01
2019-03-17T00:47:48.004Z,79.81
2019-03-17T00:50:18.555Z,79.92
2019-03-17T00:52:48.997Z,79.23
2019-03-17T00:55:19.962Z,79.92
2019-03-17T00:57:50.648Z,79.23
2019-03-17T01:00:21.448Z,79.40
2019-03-17T01:02:52.331Z,79.94
2019-03-17T01:05:23.300Z,79.87
2019-03-17T01:07:54.087Z,79.46
2019-03-17T01:10:24.671Z,79.31
2019-03-17T01:12:55.721Z,79.45
2019-03-17T01:15:26.536Z,79.45
2019-03-17T01:17:57.330Z,78.17
2019-03-17T01:20:27.714Z,78.71
2019-03-17T01:22:58.511Z,77.65
2019-03-17T01:25:29.442Z,78.20
2019-03-17T01:28:00.178Z,78.40
2019-03-17T01:30:30.912Z,77.85
2019-03-17T01:33:01.643Z,77.90
2019-03-17T01:35:32.821Z,78.21
2019-03-17T01:38:03.823Z,78.19
2019-03-17T01:40:34.455Z,77.62
2019-03-17T01:43:05.193Z,77.58
2019-03-17T01:45:36.031Z,77.87
2019-03-17T01:48:06.387Z,77.97
2019-03-17T01:50:36.783Z,77.67
2019-03-17T01:53:07.561Z,77.69
2019-03-17T01:55:38.347Z,76.37
2019-03-17T01:58:09.577Z,77.49
2019-03-17T02:00:40.541Z,77.46
2019-03-17T02:03:11.270Z,76.89
2019-03-17T02:05:42.115Z,76.79
2019-03-17T02:08:12.959Z,77.29
2019-03-17T02:10:43.416Z,77.19
2019-03-17T02:13:17.904Z,77.16
2019-03-17T02:15:48.951Z,77.13
2019-03-17T02:18:19.651Z,76.34
2019-03-17T02:20:51.984Z,76.18
2019-03-17T02:23:22.973Z,76.12
2019-03-17T02:25:53.767Z,76.47
2019-03-17T02:28:25.803Z,76.84
2019-03-17T02:30:56.150Z,76.40
2019-03-17T02:33:26.944Z,75.36
2019-03-17T02:36:00.359Z,75.76
2019-03-17T02:38:31.173Z,75.91
2019-03-17T02:41:01.678Z,75.74
2019-03-17T02:43:32.446Z,75.39
2019-03-17T02:46:03.186Z,75.45
2019-03-17T02:48:33.710Z,75.57
2019-03-17T02:51:04.460Z,75.78
2019-03-17T02:53:35.369Z,75.71
2019-03-17T02:56:06.238Z,75.55
2019-03-17T02:58:37.077Z,75.37
2019-03-17T03:01:15.719Z,75.70
2019-03-17T03:03:46.505Z,75.65
2019-03-17T03:06:16.881Z,74.73
2019-03-17T03:08:47.677Z,74.41
2019-03-17T03:11:18.410Z,74.41
2019-03-17T03:13:49.646Z,74.20
2019-03-17T03:16:20.429Z,74.45
2019-03-17T03:18:51.668Z,74.27
2019-03-17T03:21:22.474Z,74.43
2019-03-17T03:23:53.325Z,74.34
2019-03-17T03:26:24.168Z,74.50
2019-03-17T03:28:54.969Z,74.87
2019-03-17T03:31:25.839Z,74.55
2019-03-17T03:33:56.682Z,73.39
2019-03-17T03:36:27.518Z,74.19
2019-03-17T03:38:57.985Z,74.17
2019-03-17T03:41:28.756Z,73.37
2019-03-17T03:44:00.087Z,74.01
2019-03-17T03:46:30.754Z,73.86
2019-03-17T03:49:01.714Z,74.13
2019-03-17T03:51:32.558Z,74.28
2019-03-17T03:54:03.443Z,73.52
2019-03-17T03:56:33.970Z,73.88
2019-03-17T03:59:04.826Z,74.24
2019-03-17T04:01:36.237Z,74.21
2019-03-17T04:04:07.110Z,74.19
2019-03-17T04:06:40.230Z,73.93
2019-03-17T04:09:10.943Z,74.11
2019-03-17T04:11:41.819Z,74.37
2019-03-17T04:14:12.589Z,74.22
2019-03-17T04:16:43.350Z,74.55
2019-03-17T04:19:14.202Z,74.03
2019-03-17T04:21:44.995Z,74.33
2019-03-17T04:24:15.779Z,74.24
2019-03-17T04:26:46.286Z,74.83
2019-03-17T04:29:17.516Z,74.88
2019-03-17T04:31:48.431Z,74.72
2019-03-17T04:34:19.311Z,74.11
2019-03-17T04:36:50.195Z,74.30
2019-03-17T04:39:21.308Z,74.47
2019-03-17T04:41:52.197Z,74.17
2019-03-17T04:44:22.943Z,74.23
2019-03-17T04:46:53.376Z,74.38
2019-03-17T04:49:24.118Z,74.69
2019-03-17T04:51:54.840Z,74.06
2019-03-17T04:54:25.607Z,74.38
2019-03-17T04:56:56.055Z,74.78
2019-03-17T04:59:26.815Z,74.84
2019-03-17T05:01:57.188Z,74.78
2019-03-17T05:04:27.994Z,74.34
2019-03-17T05:06:58.742Z,74.62
2019-03-17T05:09:29.457Z,74.22
2019-03-17T05:12:00.206Z,74.40
2019-03-17T05:14:30.922Z,74.51
2019-03-17T05:17:01.659Z,74.82
2019-03-17T05:19:32.394Z,74.22
2019-03-17T05:22:03.134Z,74.63
2019-03-17T05:24:34.009Z,74.75
2019-03-17T05:27:04.815Z,74.70
2019-03-17T05:29:35.567Z,74.71
2019-03-17T05:32:06.540Z,73.02
2019-03-17T05:34:37.222Z,74.17
2019-03-17T05:37:07.994Z,73.62
2019-03-17T05:39:38.895Z,73.93
2019-03-17T05:42:10.241Z,73.92
2019-03-17T05:44:41.013Z,73.79
2019-03-17T05:47:12.026Z,73.88
2019-03-17T05:49:42.529Z,73.99
2019-03-17T05:52:13.280Z,73.67
2019-03-17T05:54:44.166Z,73.93
2019-03-17T05:57:14.974Z,73.42
2019-03-17T05:59:45.855Z,74.13
2019-03-17T06:02:16.800Z,73.66
2019-03-17T06:04:47.377Z,73.73
2019-03-17T06:07:19.174Z,73.44
2019-03-17T06:09:50.080Z,73.83
2019-03-17T06:12:22.648Z,73.75
2019-03-17T06:14:53.486Z,73.19
2019-03-17T06:17:24.314Z,73.23
2019-03-17T06:19:55.172Z,73.52
2019-03-17T06:22:26.008Z,73.80
2019-03-17T06:24:56.801Z,73.16
2019-03-17T06:27:27.243Z,73.37
2019-03-17T06:29:57.704Z,72.70
2019-03-17T06:32:28.110Z,72.86
2019-03-17T06:34:58.920Z,73.29
2019-03-17T06:37:31.215Z,73.05
2019-03-17T06:40:01.781Z,72.96
2019-03-17T06:42:32.564Z,72.81
2019-03-17T06:45:03.316Z,72.65
2019-03-17T06:47:34.169Z,72.49
2019-03-17T06:50:13.192Z,72.38
2019-03-17T06:52:45.532Z,72.64
2019-03-17T06:55:18.652Z,72.40
2019-03-17T06:57:49.202Z,72.44
2019-03-17T07:00:19.985Z,71.76
2019-03-17T07:02:50.391Z,71.40
2019-03-17T07:05:20.758Z,72.18
2019-03-17T07:07:51.469Z,72.48
2019-03-17T07:10:22.275Z,71.85
2019-03-17T07:12:52.961Z,71.41
2019-03-17T07:15:23.431Z,72.28
2019-03-17T07:17:54.199Z,72.06
2019-03-17T07:20:24.679Z,72.97
2019-03-17T07:22:55.478Z,73.36
2019-03-17T07:25:26.353Z,73.35
2019-03-17T07:27:56.752Z,73.10
2019-03-17T07:30:27.587Z,73.60
2019-03-17T07:32:58.091Z,73.44
2019-03-17T07:35:28.943Z,73.40
2019-03-17T07:37:59.715Z,73.07
2019-03-17T07:40:30.422Z,72.73
2019-03-17T07:43:01.145Z,72.77
2019-03-17T07:45:31.612Z,73.73
2019-03-17T07:48:02.509Z,73.30
2019-03-17T07:50:33.274Z,72.57
2019-03-17T07:53:04.214Z,72.73
2019-03-17T07:55:35.592Z,72.28
2019-03-17T07:58:06.487Z,71.30
2019-03-17T08:00:39.881Z,71.84
2019-03-17T08:03:10.650Z,72.51
2019-03-17T08:05:41.471Z,71.47
2019-03-17T08:08:12.402Z,71.28
2019-03-17T08:10:43.219Z,70.80
2019-03-17T08:13:14.209Z,70.93
2019-03-17T08:15:45.000Z,70.38
2019-03-17T08:18:15.735Z,70.28
2019-03-17T08:20:46.473Z,69.69
2019-03-17T08:23:17.217Z,69.97
2019-03-17T08:25:48.151Z,69.21
2019-03-17T08:28:18.997Z,68.60
2019-03-17T08:30:53.497Z,68.66
2019-03-17T08:33:22.305Z,68.48
2019-03-17T08:35:53.053Z,67.72
2019-03-17T08:38:23.791Z,67.21
2019-03-17T08:40:54.782Z,67.37
2019-03-17T08:43:25.598Z,67.11
2019-03-17T08:45:56.382Z,66.39
2019-03-17T08:48:27.204Z,65.49
2019-03-17T08:50:57.947Z,66.09
2019-03-17T08:53:28.795Z,65.88
2019-03-17T08:55:59.625Z,66.05
2019-03-17T08:58:30.533Z,65.27
2019-03-17T09:01:01.403Z,65.78
2019-03-17T09:03:31.857Z,65.55
2019-03-17T09:06:02.661Z,64.87
2019-03-17T09:08:35.304Z,64.99
2019-03-17T09:11:05.917Z,65.52
2019-03-17T09:13:36.687Z,64.54
2019-03-17T09:16:07.536Z,64.82
2019-03-17T09:18:38.386Z,65.33
2019-03-17T09:21:09.225Z,68.09
2019-03-17T09:23:42.511Z,67.11
2019-03-17T09:26:12.248Z,62.80
2019-03-17T09:28:44.595Z,61.69
2019-03-17T09:31:15.419Z,62.17
2019-03-17T09:33:45.913Z,63.63
2019-03-17T09:36:16.707Z,62.76
2019-03-17T09:38:47.821Z,62.75
2019-03-17T09:41:18.793Z,62.69
2019-03-17T09:43:49.649Z,62.87
2019-03-17T09:46:20.548Z,64.11
2019-03-17T09:48:51.070Z,64.05
2019-03-17T09:51:21.927Z,63.06
2019-03-17T09:53:53.178Z,62.88
2019-03-17T09:56:23.931Z,62.50
2019-03-17T09:58:54.717Z,62.38
2019-03-17T10:01:25.471Z,61.67
2019-03-17T10:03:56.303Z,61.60
2019-03-17T10:06:27.149Z,61.77
2019-03-17T10:09:00.327Z,61.93
2019-03-17T10:11:30.385Z,61.69
2019-03-17T10:14:01.190Z,61.33
2019-03-17T10:16:31.654Z,62.33
2019-03-17T10:19:02.464Z,61.71
2019-03-17T10:21:33.668Z,61.74
2019-03-17T10:27:48.523Z,62.08
2019-03-17T10:30:20.986Z,61.63
2019-03-17T10:32:51.514Z,62.55
2019-03-17T10:35:23.978Z,61.33
2019-03-17T10:37:54.812Z,61.77
2019-03-17T10:40:25.536Z,62.26
2019-03-17T10:42:56.519Z,62.32
2019-03-17T10:45:27.310Z,61.57
2019-03-17T10:47:59.382Z,62.23
2019-03-17T10:50:30.252Z,62.52
2019-03-17T10:53:03.706Z,61.80
2019-03-17T10:55:34.539Z,62.07
2019-03-17T10:58:05.295Z,62.60
2019-03-17T11:00:37.692Z,62.30
2019-03-17T11:03:08.905Z,61.83
2019-03-17T11:05:39.690Z,61.29
2019-03-17T11:08:10.746Z,61.08
2019-03-17T11:10:41.265Z,61.35
2019-03-17T11:13:12.212Z,61.61
2019-03-17T11:15:43.134Z,61.16
2019-03-17T11:18:22.800Z,61.44
2019-03-17T11:20:56.162Z,61.19
2019-03-17T11:23:28.118Z,61.15
2019-03-17T11:25:58.932Z,60.73
2019-03-17T11:28:30.423Z,60.85
2019-03-17T11:34:00.293Z,60.64
2019-03-17T11:36:31.159Z,60.69
2019-03-17T11:39:02.116Z,60.39
2019-03-17T11:41:33.026Z,60.58
2019-03-17T11:44:03.603Z,60.42
2019-03-17T11:46:34.590Z,60.42
2019-03-17T11:49:05.563Z,60.56
2019-03-17T11:51:37.054Z,61.36
2019-03-17T11:54:07.931Z,62.16
2019-03-17T11:56:38.659Z,62.07
2019-03-17T11:59:09.398Z,62.47
2019-03-17T12:01:40.336Z,62.41
2019-03-17T12:04:11.176Z,62.49
2019-03-17T12:06:41.745Z,62.91
2019-03-17T12:09:12.672Z,64.97
2019-03-17T12:11:43.596Z,64.42
2019-03-17T12:14:14.447Z,64.03
2019-03-17T12:16:44.838Z,63.73
2019-03-17T12:19:15.514Z,63.73
2019-03-17T12:21:46.308Z,63.09
2019-03-17T12:24:17.249Z,62.83
2019-03-17T12:26:48.089Z,62.78
2019-03-17T12:29:19.328Z,62.00
2019-03-17T12:31:50.089Z,62.58
2019-03-17T12:34:28.114Z,62.19
2019-03-17T12:36:53.413Z,62.85
2019-03-17T12:39:24.210Z,62.76
2019-03-17T12:41:54.946Z,63.06
2019-03-17T12:44:25.903Z,63.44
2019-03-17T12:46:56.846Z,64.21
2019-03-17T12:49:27.674Z,64.46
2019-03-17T12:51:58.419Z,65.89
2019-03-17T12:54:29.232Z,68.21
2019-03-17T12:57:00.026Z,70.37
2019-03-17T12:59:30.909Z,73.98
2019-03-17T13:02:01.751Z,80.64
2019-03-17T13:04:32.482Z,81.11
2019-03-17T13:07:03.334Z,83.25
2019-03-17T13:09:34.334Z,83.25
2019-03-17T13:12:05.108Z,83.27
2019-03-17T13:14:35.927Z,85.56
2019-03-17T13:17:06.778Z,85.21
2019-03-17T13:19:37.551Z,84.44
2019-03-17T13:22:08.322Z,85.12
2019-03-17T13:24:39.077Z,86.10
2019-03-17T13:27:10.329Z,85.82
2019-03-17T13:29:41.372Z,85.95
2019-03-17T13:32:11.892Z,86.35
2019-03-17T13:34:44.036Z,85.30
2019-03-17T13:37:14.899Z,85.99
2019-03-17T13:39:46.768Z,85.93
2019-03-17T13:42:17.243Z,85.50
2019-03-17T13:44:48.032Z,85.42
2019-03-17T13:47:18.979Z,85.60
2019-03-17T13:49:49.929Z,85.55
2019-03-17T13:52:20.921Z,85.18
2019-03-17T13:54:51.768Z,84.88
2019-03-17T13:57:22.855Z,84.89
2019-03-17T13:59:53.777Z,84.25
2019-03-17T14:02:26.959Z,85.73
2019-03-17T14:04:57.919Z,85.44
2019-03-17T14:07:28.701Z,85.40
2019-03-17T14:09:59.689Z,84.63
2019-03-17T14:12:30.529Z,84.20
2019-03-17T14:15:05.476Z,84.40
2019-03-17T14:17:36.075Z,84.68
2019-03-17T14:20:15.535Z,84.58
2019-03-17T14:22:46.459Z,83.52
2019-03-17T14:25:25.820Z,84.37
2019-03-17T14:27:56.632Z,84.23
2019-03-17T14:30:27.635Z,84.50
2019-03-17T14:32:58.607Z,84.05
2019-03-17T14:35:29.494Z,83.51
2019-03-17T14:38:00.632Z,84.04
2019-03-17T14:40:31.517Z,83.83
2019-03-17T14:43:03.936Z,83.39
2019-03-17T14:45:34.936Z,83.22
2019-03-17T14:48:05.819Z,83.34
2019-03-17T14:50:36.709Z,83.54
2019-03-17T14:53:07.889Z,84.04
2019-03-17T14:55:38.713Z,83.71
2019-03-17T14:58:09.709Z,82.89
2019-03-17T15:00:43.887Z,83.07
2019-03-17T15:03:14.666Z,82.89
2019-03-17T15:05:48.333Z,82.99
2019-03-17T15:08:18.727Z,83.21
2019-03-17T15:10:49.649Z,82.71
2019-03-17T15:13:20.401Z,83.03
2019-03-17T15:16:02.337Z,83.29
2019-03-17T15:18:23.783Z,82.56
2019-03-17T15:20:54.548Z,82.45
2019-03-17T15:23:25.453Z,82.70
2019-03-17T15:25:56.186Z,82.56
2019-03-17T15:28:26.588Z,82.48
2019-03-17T15:31:11.032Z,81.91
2019-03-17T15:33:30.039Z,82.80
2019-03-17T15:36:00.878Z,82.04
2019-03-17T15:38:31.763Z,81.80
2019-03-17T15:41:04.086Z,82.20
2019-03-17T15:43:34.969Z,81.54
2019-03-17T15:46:08.820Z,82.11
2019-03-17T15:48:39.588Z,84.73
2019-03-17T15:51:19.588Z,82.54
2019-03-17T15:53:43.295Z,79.48
2019-03-17T15:56:16.591Z,78.83
2019-03-17T15:58:47.429Z,79.42
2019-03-17T16:01:19.803Z,80.02
2019-03-17T16:03:50.659Z,79.78
2019-03-17T16:06:21.368Z,79.99
2019-03-17T16:08:52.323Z,80.59
2019-03-17T16:11:30.792Z,80.87
2019-03-17T16:13:54.924Z,80.77
2019-03-17T16:16:25.925Z,80.18
2019-03-17T16:18:56.786Z,80.22
2019-03-17T16:21:28.827Z,81.20
2019-03-17T16:23:59.695Z,80.57
2019-03-17T16:26:30.548Z,80.57
2019-03-17T16:29:01.235Z,80.62
2019-03-17T16:31:34.530Z,80.48
2019-03-17T16:34:05.380Z,80.28
2019-03-17T16:36:36.199Z,80.51
2019-03-17T16:39:08.293Z,80.08
2019-03-17T16:41:43.697Z,80.33
2019-03-17T16:44:11.653Z,80.08
2019-03-17T16:46:42.536Z,80.35
2019-03-17T16:49:13.381Z,80.37
2019-03-17T16:51:44.319Z,80.39
2019-03-17T16:54:15.022Z,79.90
2019-03-17T16:56:46.979Z,80.09
2019-03-17T16:59:18.099Z,80.55
2019-03-17T17:01:49.079Z,80.44
2019-03-17T17:04:21.976Z,80.79
2019-03-17T17:06:54.039Z,80.96
2019-03-17T17:09:24.867Z,82.62
2019-03-17T17:11:57.388Z,84.15
2019-03-17T17:14:27.791Z,82.79
2019-03-17T17:16:58.623Z,82.77
2019-03-17T17:19:29.553Z,83.30
2019-03-17T17:22:00.504Z,83.69
2019-03-17T17:24:34.112Z,82.64
2019-03-17T17:27:04.967Z,82.88
2019-03-17T17:29:35.774Z,82.18
2019-03-17T17:32:06.676Z,81.25
2019-03-17T17:34:37.432Z,81.85
2019-03-17T17:37:08.287Z,80.94
2019-03-17T17:39:39.110Z,80.56
2019-03-17T17:42:10.470Z,80.97
2019-03-17T17:44:42.931Z,79.56
2019-03-17T17:47:15.618Z,79.73
2019-03-17T17:49:46.445Z,80.13
2019-03-17T17:52:21.662Z,78.63
2019-03-17T17:54:58.465Z,78.51
2019-03-17T17:57:29.220Z,78.30
2019-03-17T18:00:02.517Z,77.13
2019-03-17T18:02:33.440Z,76.98
2019-03-17T18:05:05.960Z,76.76
2019-03-17T18:07:39.728Z,76.32
2019-03-17T18:10:13.033Z,76.12
2019-03-17T18:12:44.255Z,76.24
2019-03-17T18:15:21.182Z,76.54
2019-03-17T18:17:52.616Z,76.21
2019-03-17T18:20:23.583Z,75.72
2019-03-17T18:22:54.675Z,75.50
2019-03-17T18:25:28.334Z,75.57
2019-03-17T18:28:00.727Z,76.10
2019-03-17T18:30:34.988Z,75.41
2019-03-17T18:33:08.641Z,75.05
2019-03-17T18:35:40.955Z,75.09
2019-03-17T18:38:11.868Z,74.26
2019-03-17T18:40:42.543Z,73.52
2019-03-17T18:43:13.436Z,73.02
2019-03-17T18:45:52.424Z,73.26
2019-03-17T18:48:23.224Z,72.57
2019-03-17T18:50:53.961Z,72.34
2019-03-17T18:53:24.845Z,72.26
2019-03-17T18:55:55.652Z,72.11
2019-03-17T18:58:26.465Z,72.62
2019-03-17T19:00:57.349Z,72.50
2019-03-17T19:03:28.012Z,72.13
2019-03-17T19:05:59.159Z,72.18
2019-03-17T19:08:30.171Z,72.37
2019-03-17T19:11:01.149Z,72.48
2019-03-17T19:13:32.555Z,71.85
2019-03-17T19:16:03.567Z,71.91
2019-03-17T19:18:34.619Z,72.15
2019-03-17T19:21:05.419Z,72.53
2019-03-17T19:23:36.252Z,72.29
2019-03-17T19:26:07.167Z,71.90
2019-03-17T19:28:37.983Z,72.00
2019-03-17T19:31:08.777Z,71.95
2019-03-17T19:33:39.619Z,72.03
2019-03-17T19:36:10.331Z,72.31
2019-03-17T19:38:45.292Z,72.22
2019-03-17T19:41:15.103Z,72.41
2019-03-17T19:43:48.221Z,72.64
2019-03-17T19:46:19.325Z,73.02
2019-03-17T19:48:49.862Z,73.40
2019-03-17T19:51:20.615Z,73.37
2019-03-17T19:53:51.442Z,73.43
2019-03-17T19:56:22.291Z,73.78
2019-03-17T19:58:53.318Z,74.02
2019-03-17T20:01:24.456Z,74.19
2019-03-17T20:03:56.923Z,74.21
2019-03-17T20:06:27.760Z,73.82
2019-03-17T20:08:58.600Z,74.00
2019-03-17T20:11:29.426Z,73.83
2019-03-17T20:14:00.308Z,73.74
2019-03-17T20:16:30.774Z,73.97
2019-03-17T20:19:03.988Z,73.75
2019-03-17T20:21:36.478Z,74.13
2019-03-17T20:24:06.901Z,74.29
2019-03-17T20:26:37.432Z,74.28
2019-03-17T20:29:08.285Z,74.23
2019-03-17T20:31:39.121Z,74.05
2019-03-17T20:34:09.949Z,74.30
2019-03-17T20:36:40.859Z,74.59
2019-03-17T20:39:11.751Z,74.28
2019-03-17T20:41:42.866Z,74.55
2019-03-17T20:44:13.949Z,74.42
2019-03-17T20:46:44.883Z,74.24
2019-03-17T20:49:15.746Z,74.60
2019-03-17T20:51:46.492Z,74.65
2019-03-17T20:54:18.831Z,74.94
2019-03-17T20:56:49.704Z,74.72
2019-03-17T20:59:20.556Z,74.82
2019-03-17T21:01:52.009Z,75.02
2019-03-17T21:04:22.988Z,75.07
2019-03-17T21:06:53.936Z,75.14
2019-03-17T21:09:24.819Z,74.97
2019-03-17T21:11:58.773Z,75.11
2019-03-17T21:14:31.012Z,75.07
2019-03-17T21:17:01.840Z,75.47
2019-03-17T21:19:32.606Z,75.45
2019-03-17T21:22:03.448Z,75.50
2019-03-17T21:24:34.420Z,75.39
2019-03-17T21:27:04.955Z,75.58
2019-03-17T21:29:35.825Z,75.61
2019-03-17T21:32:06.914Z,75.65
2019-03-17T21:34:37.291Z,75.56
2019-03-17T21:37:08.120Z,75.60
2019-03-17T21:39:39.147Z,75.46
2019-03-17T21:42:09.943Z,75.87
2019-03-17T21:44:40.850Z,75.96
2019-03-17T21:47:11.666Z,76.20
2019-03-17T21:49:42.481Z,75.90
2019-03-17T21:52:14.790Z,75.70
2019-03-17T21:54:45.905Z,76.02
2019-03-17T21:57:16.833Z,76.14
2019-03-17T21:59:47.574Z,76.03
2019-03-17T22:02:18.055Z,76.24
2019-03-17T22:04:49.046Z,76.45
2019-03-17T22:07:21.473Z,76.39
2019-03-17T22:09:53.625Z,76.37
2019-03-17T22:12:24.547Z,76.24
2019-03-17T22:14:55.527Z,76.13
2019-03-17T22:17:26.502Z,76.31
2019-03-17T22:19:57.561Z,76.25
2019-03-17T22:22:28.390Z,76.05
2019-03-17T22:24:59.120Z,75.94
2019-03-17T22:27:29.890Z,76.08
2019-03-17T22:30:00.516Z,75.90
2019-03-17T22:32:31.410Z,75.98
2019-03-17T22:35:02.242Z,76.05
2019-03-17T22:37:33.031Z,76.03
2019-03-17T22:40:04.959Z,75.84
2019-03-17T22:42:35.771Z,75.37
2019-03-17T22:45:16.249Z,75.30
2019-03-17T22:47:48.218Z,75.39
2019-03-17T22:50:22.603Z,75.53
2019-03-17T22:52:53.417Z,75.43
2019-03-17T22:55:24.352Z,75.19
2019-03-17T22:57:55.591Z,75.55
2019-03-17T23:00:33.567Z,75.28
2019-03-17T23:03:06.282Z,75.27
2019-03-17T23:05:38.985Z,75.60
2019-03-17T23:08:09.637Z,75.49
2019-03-17T23:10:41.923Z,75.44
2019-03-17T23:13:12.645Z,75.41
2019-03-17T23:15:43.412Z,75.26
2019-03-17T23:18:14.237Z,75.47
2019-03-17T23:20:44.968Z,75.76
2019-03-17T23:23:15.719Z,75.05
2019-03-17T23:25:46.542Z,75.49
2019-03-17T23:28:17.275Z,75.03
2019-03-17T23:30:48.212Z,75.31
2019-03-17T23:33:18.673Z,74.87
2019-03-17T23:35:49.482Z,74.91
2019-03-17T23:38:20.409Z,74.72
2019-03-17T23:40:51.245Z,74.39
2019-03-17T23:43:22.115Z,74.48
2019-03-17T23:45:52.888Z,74.57
2019-03-17T23:48:23.658Z,74.44
2019-03-17T23:50:54.499Z,74.45
2019-03-17T23:53:25.355Z,74.19
2019-03-17T23:55:55.739Z,74.17
2019-03-17T23:58:26.203Z,74.16
